createdAt,value
2023-01-17T00:00:35.050Z,97466.66
2023-01-17T00:03:01.933Z,97461.75
2023-01-17T00:05:47.158Z,97461.56
2023-01-17T00:08:32.310Z,97461.84
2023-01-17T00:10:59.236Z,97461.72
2023-01-17T00:13:25.986Z,97464.63
2023-01-17T00:15:53.132Z,97458.16
2023-01-17T00:18:19.866Z,97460.72
2023-01-17T00:21:05.371Z,97452.44
2023-01-17T00:24:01.127Z,97465.41
2023-01-17T00:26:28.187Z,97470.13
2023-01-17T00:28:54.888Z,97467.69
2023-01-17T00:31:22.161Z,97461.56
2023-01-17T00:33:51.163Z,97462.00
2023-01-17T00:36:17.864Z,97463.13
2023-01-17T00:38:44.580Z,97462.88
2023-01-17T00:41:14.512Z,97477.53
2023-01-17T00:43:59.888Z,97475.56
2023-01-17T00:46:45.255Z,97477.91
2023-01-17T00:49:30.485Z,97473.69
2023-01-17T00:52:16.018Z,97472.69
2023-01-17T00:55:01.664Z,97480.16
2023-01-17T00:57:48.501Z,97477.13
2023-01-17T01:00:36.097Z,97483.16
2023-01-17T01:03:30.572Z,97494.63
2023-01-17T01:06:16.122Z,97486.06
2023-01-17T01:09:01.569Z,97485.44
2023-01-17T01:11:46.903Z,97483.41
2023-01-17T01:14:32.054Z,97496.47
2023-01-17T01:17:17.493Z,97518.13
2023-01-17T01:20:02.726Z,97516.16
2023-01-17T01:22:48.635Z,97498.53
2023-01-17T01:25:33.909Z,97487.59
2023-01-17T01:28:28.949Z,97488.34
2023-01-17T01:31:14.351Z,97496.66
2023-01-17T01:33:41.136Z,97501.16
2023-01-17T01:36:09.236Z,97499.75
2023-01-17T01:38:36.269Z,97514.72
2023-01-17T01:41:03.244Z,97515.06
2023-01-17T01:43:43.763Z,97499.31
2023-01-17T01:46:15.017Z,97501.59
2023-01-17T01:49:03.770Z,97502.31
2023-01-17T01:51:43.059Z,97497.69
2023-01-17T01:54:17.526Z,97496.75
2023-01-17T01:56:45.636Z,97494.75
2023-01-17T01:59:16.044Z,97502.47
2023-01-17T02:01:43.026Z,97502.94
2023-01-17T02:04:11.163Z,97508.47
2023-01-17T02:06:46.241Z,97514.41
2023-01-17T02:09:15.187Z,97511.63
2023-01-17T02:11:42.510Z,97502.56
2023-01-17T02:14:16.184Z,97507.66
2023-01-17T02:17:09.590Z,97510.06
2023-01-17T02:20:13.640Z,97505.81
2023-01-17T02:22:40.306Z,97498.00
2023-01-17T02:25:16.367Z,97500.63
2023-01-17T02:28:02.831Z,97500.31
2023-01-17T02:30:42.504Z,97501.84
2023-01-17T02:33:16.922Z,97493.41
2023-01-17T02:35:49.563Z,97483.50
2023-01-17T02:38:31.645Z,97479.22
2023-01-17T02:41:05.593Z,97477.81
2023-01-17T02:43:34.215Z,97470.81
2023-01-17T02:46:01.240Z,97469.03
2023-01-17T02:48:32.409Z,97463.41
2023-01-17T02:51:38.911Z,97463.31
2023-01-17T02:54:05.688Z,97478.25
2023-01-17T02:56:49.068Z,97473.81
2023-01-17T02:59:21.351Z,97482.66
2023-01-17T03:02:06.384Z,97482.66
2023-01-17T03:04:38.042Z,97483.81
2023-01-17T03:07:11.543Z,97485.81
2023-01-17T03:09:40.792Z,97491.72
2023-01-17T03:12:09.356Z,97497.66
2023-01-17T03:14:36.138Z,97506.59
2023-01-17T03:17:02.942Z,97524.53
2023-01-17T03:19:29.993Z,97519.72
2023-01-17T03:21:56.996Z,97528.88
2023-01-17T03:24:23.913Z,97528.03
2023-01-17T03:26:50.623Z,97527.72
2023-01-17T03:29:17.482Z,97525.53
2023-01-17T03:31:44.215Z,97524.72
2023-01-17T03:34:11.175Z,97526.81
2023-01-17T03:36:37.817Z,97526.53
2023-01-17T03:39:04.710Z,97526.09
2023-01-17T03:41:31.420Z,97519.38
2023-01-17T03:43:58.176Z,97506.69
2023-01-17T03:46:26.034Z,97507.91
2023-01-17T03:48:53.226Z,97503.91
2023-01-17T03:51:20.512Z,97501.47
2023-01-17T03:53:47.656Z,97505.91
2023-01-17T03:56:14.870Z,97503.56
2023-01-17T03:58:41.771Z,97503.34
2023-01-17T04:01:08.777Z,97499.84
2023-01-17T04:03:35.617Z,97499.91
2023-01-17T04:06:02.434Z,97518.34
2023-01-17T04:08:32.054Z,97531.84
2023-01-17T04:10:58.844Z,97536.84
2023-01-17T04:13:25.566Z,97529.16
2023-01-17T04:15:52.796Z,97520.88
2023-01-17T04:18:21.079Z,97509.69
2023-01-17T04:20:48.053Z,97505.34
2023-01-17T04:23:14.742Z,97485.88
2023-01-17T04:25:41.605Z,97492.66
2023-01-17T04:28:08.766Z,97497.84
2023-01-17T04:30:35.600Z,97506.91
2023-01-17T04:33:02.497Z,97512.47
2023-01-17T04:35:31.651Z,97508.13
2023-01-17T04:37:58.374Z,97512.03
2023-01-17T04:40:25.292Z,97504.59
2023-01-17T04:42:52.062Z,97496.91
2023-01-17T04:45:19.056Z,97500.59
2023-01-17T04:47:45.811Z,97494.09
2023-01-17T04:50:13.053Z,97497.47
2023-01-17T04:52:39.833Z,97500.75
2023-01-17T04:55:07.978Z,97501.88
2023-01-17T04:57:34.743Z,97499.91
2023-01-17T05:00:01.543Z,97508.78
2023-01-17T05:02:28.575Z,97506.50
2023-01-17T05:04:55.282Z,97515.00
2023-01-17T05:07:22.492Z,97514.00
2023-01-17T05:09:50.344Z,97515.97
2023-01-17T05:12:17.042Z,97512.78
2023-01-17T05:14:43.744Z,97516.56
2023-01-17T05:17:11.345Z,97516.97
2023-01-17T05:19:38.221Z,97508.88
2023-01-17T05:22:15.190Z,97523.41
2023-01-17T05:24:44.062Z,97523.25
2023-01-17T05:27:11.735Z,97520.13
2023-01-17T05:29:38.718Z,97514.34
2023-01-17T05:32:06.183Z,97518.69
2023-01-17T05:34:33.019Z,97523.50
2023-01-17T05:37:00.662Z,97524.06
2023-01-17T05:39:27.409Z,97528.94
2023-01-17T05:41:54.166Z,97531.09
2023-01-17T05:44:20.903Z,97531.25
2023-01-17T05:46:47.685Z,97537.94
2023-01-17T05:49:14.499Z,97532.59
2023-01-17T05:51:41.192Z,97541.06
2023-01-17T05:54:08.148Z,97548.78
2023-01-17T05:56:38.123Z,97543.81
2023-01-17T05:59:04.922Z,97560.34
2023-01-17T06:01:31.650Z,97561.94
2023-01-17T06:03:58.341Z,97555.75
2023-01-17T06:06:25.086Z,97562.88
2023-01-17T06:08:51.780Z,97553.75
2023-01-17T06:11:18.793Z,97568.56
2023-01-17T06:13:48.794Z,97579.81
2023-01-17T06:16:15.630Z,97570.78
2023-01-17T06:18:42.392Z,97578.88
2023-01-17T06:21:09.209Z,97586.94
2023-01-17T06:23:36.026Z,97586.09
2023-01-17T06:26:04.501Z,97596.94
2023-01-17T06:28:32.605Z,97599.69
2023-01-17T06:31:00.076Z,97592.94
2023-01-17T06:33:26.941Z,97600.59
2023-01-17T06:35:54.182Z,97607.25
2023-01-17T06:38:21.401Z,97609.38
2023-01-17T06:40:48.173Z,97616.66
2023-01-17T06:43:15.214Z,97612.31
2023-01-17T06:45:41.891Z,97622.19
2023-01-17T06:48:13.106Z,97628.09
2023-01-17T06:50:39.818Z,97631.25
2023-01-17T06:53:07.533Z,97636.47
2023-01-17T06:55:35.329Z,97635.09
2023-01-17T06:58:03.195Z,97644.50
2023-01-17T07:00:35.066Z,97646.66
2023-01-17T07:03:03.111Z,97649.38
2023-01-17T07:05:29.869Z,97663.94
2023-01-17T07:07:57.513Z,97661.72
2023-01-17T07:10:24.219Z,97661.84
2023-01-17T07:12:51.539Z,97664.81
2023-01-17T07:15:18.350Z,97663.59
2023-01-17T07:17:45.068Z,97669.06
2023-01-17T07:20:12.024Z,97679.97
2023-01-17T07:22:38.880Z,97691.56
2023-01-17T07:25:06.487Z,97697.72
2023-01-17T07:27:33.690Z,97706.59
2023-01-17T07:30:00.854Z,97701.91
2023-01-17T07:32:27.938Z,97706.59
2023-01-17T07:34:56.888Z,97706.19
2023-01-17T07:37:23.749Z,97716.59
2023-01-17T07:39:50.540Z,97702.13
2023-01-17T07:42:17.315Z,97722.81
2023-01-17T07:44:45.321Z,97715.47
2023-01-17T07:47:12.488Z,97730.03
2023-01-17T07:49:39.278Z,97729.88
2023-01-17T07:52:12.576Z,97732.25
2023-01-17T07:54:39.173Z,97730.75
2023-01-17T07:57:06.153Z,97734.88
2023-01-17T07:59:34.546Z,97721.59
2023-01-17T08:02:01.493Z,97718.31
2023-01-17T08:04:34.676Z,97726.53
2023-01-17T08:07:01.897Z,97723.59
2023-01-17T08:09:28.745Z,97727.91
2023-01-17T08:11:58.654Z,97729.97
2023-01-17T08:14:25.633Z,97727.09
2023-01-17T08:16:53.281Z,97727.44
2023-01-17T08:19:20.461Z,97729.78
2023-01-17T08:21:47.281Z,97731.91
2023-01-17T08:24:14.653Z,97737.41
2023-01-17T08:26:41.449Z,97734.06
2023-01-17T08:29:08.992Z,97728.91
2023-01-17T08:31:36.718Z,97728.34
2023-01-17T08:34:03.578Z,97725.31
2023-01-17T08:36:31.372Z,97722.53
2023-01-17T08:38:58.941Z,97723.88
2023-01-17T08:41:27.780Z,97730.41
2023-01-17T08:43:54.624Z,97720.88
2023-01-17T08:46:21.503Z,97718.94
2023-01-17T08:48:48.260Z,97719.50
2023-01-17T08:51:14.985Z,97723.22
2023-01-17T08:53:42.032Z,97725.69
2023-01-17T08:56:09.306Z,97728.03
2023-01-17T08:58:36.100Z,97730.97
2023-01-17T09:01:04.320Z,97732.44
2023-01-17T09:03:32.552Z,97734.66
2023-01-17T09:06:10.962Z,97732.09
2023-01-17T09:08:38.243Z,97735.03
2023-01-17T09:11:06.509Z,97735.94
2023-01-17T09:13:33.634Z,97749.91
2023-01-17T09:16:03.114Z,97753.75
2023-01-17T09:18:30.965Z,97767.97
2023-01-17T09:20:59.270Z,97770.88
2023-01-17T09:23:28.233Z,97775.59
2023-01-17T09:25:59.129Z,97761.13
2023-01-17T09:28:26.808Z,97779.53
2023-01-17T09:30:54.576Z,97777.59
2023-01-17T09:33:24.475Z,97783.75
2023-01-17T09:35:51.518Z,97801.56
2023-01-17T09:38:18.401Z,97810.91
2023-01-17T09:40:47.788Z,97820.19
2023-01-17T09:43:44.437Z,97828.00
2023-01-17T09:46:26.767Z,97805.59
2023-01-17T09:49:19.772Z,97818.81
2023-01-17T09:51:46.682Z,97812.53
2023-01-17T09:54:23.894Z,97803.56
2023-01-17T09:57:22.555Z,97794.56
2023-01-17T10:00:04.297Z,97785.72
2023-01-17T10:02:53.973Z,97779.09
2023-01-17T10:05:30.884Z,97774.53
2023-01-17T10:08:29.603Z,97777.19
2023-01-17T10:10:57.855Z,97773.56
2023-01-17T10:13:27.338Z,97771.16
2023-01-17T10:16:22.877Z,97773.19
2023-01-17T10:19:16.282Z,97766.03
2023-01-17T10:22:10.895Z,97752.75
2023-01-17T10:24:56.091Z,97750.72
2023-01-17T10:27:30.493Z,97735.19
2023-01-17T10:29:57.349Z,97721.34
2023-01-17T10:32:29.504Z,97714.53
2023-01-17T10:34:58.306Z,97707.78
2023-01-17T10:37:56.790Z,97703.97
2023-01-17T10:40:40.976Z,97705.31
2023-01-17T10:43:24.707Z,97702.03
2023-01-17T10:45:58.175Z,97713.19
2023-01-17T10:48:41.597Z,97710.19
2023-01-17T10:51:26.804Z,97700.97
2023-01-17T10:54:14.892Z,97711.38
2023-01-17T10:56:42.328Z,97699.84
2023-01-17T10:59:23.806Z,97691.56
2023-01-17T11:01:51.378Z,97680.09
2023-01-17T11:04:32.326Z,97689.97
2023-01-17T11:07:25.963Z,97677.28
2023-01-17T11:09:58.283Z,97665.78
2023-01-17T11:12:54.556Z,97666.78
2023-01-17T11:15:25.994Z,97669.66
2023-01-17T11:18:03.230Z,97674.81
2023-01-17T11:20:39.993Z,97669.50
2023-01-17T11:23:31.326Z,97677.56
2023-01-17T11:26:03.609Z,97670.03
2023-01-17T11:28:38.076Z,97661.78
2023-01-17T11:31:07.990Z,97658.97
2023-01-17T11:38:29.430Z,97641.75
2023-01-17T11:41:20.323Z,97639.75
2023-01-17T11:43:55.208Z,97656.66
2023-01-17T11:46:23.911Z,97657.88
2023-01-17T11:48:55.830Z,97654.41
2023-01-17T11:51:41.614Z,97653.94
2023-01-17T11:54:20.918Z,97649.47
2023-01-17T11:56:47.808Z,97646.75
2023-01-17T11:59:37.407Z,97636.13
2023-01-17T12:02:34.295Z,97628.41
2023-01-17T12:05:34.986Z,97641.19
2023-01-17T12:08:25.144Z,97639.44
2023-01-17T12:11:33.626Z,97645.03
2023-01-17T12:14:11.177Z,97644.84
2023-01-17T12:16:44.032Z,97644.13
2023-01-17T12:19:34.027Z,97643.06
2023-01-17T12:22:45.019Z,97641.41
2023-01-17T12:25:47.803Z,97645.41
2023-01-17T12:28:26.715Z,97647.63
2023-01-17T12:31:27.145Z,97650.16
2023-01-17T12:34:38.905Z,97636.66
2023-01-17T12:37:29.617Z,97635.22
2023-01-17T12:40:15.191Z,97640.06
2023-01-17T12:42:49.508Z,97634.91
2023-01-17T12:45:24.521Z,97630.50
2023-01-17T12:47:59.916Z,97633.34
2023-01-17T12:50:43.246Z,97619.47
2023-01-17T12:53:39.511Z,97617.00
2023-01-17T12:56:44.994Z,97615.72
2023-01-17T12:59:37.985Z,97610.19
2023-01-17T13:02:34.315Z,97609.13
2023-01-17T13:05:23.789Z,97604.50
2023-01-17T13:07:53.383Z,97603.72
2023-01-17T13:10:30.984Z,97605.84
2023-01-17T13:13:03.518Z,97608.34
2023-01-17T13:15:37.586Z,97616.03
2023-01-17T13:18:15.806Z,97631.50
2023-01-17T13:20:48.410Z,97633.09
2023-01-17T13:23:48.570Z,97630.72
2023-01-17T13:26:41.543Z,97636.53
2023-01-17T13:29:46.385Z,97628.00
2023-01-17T13:32:40.082Z,97628.06
2023-01-17T13:35:33.652Z,97612.09
2023-01-17T13:38:29.282Z,97612.59
2023-01-17T13:41:06.609Z,97600.06
2023-01-17T13:43:39.811Z,97605.97
2023-01-17T13:46:07.281Z,97608.06
2023-01-17T13:48:38.552Z,97593.69
2023-01-17T13:51:09.411Z,97588.03
2023-01-17T13:53:36.991Z,97593.19
2023-01-17T13:56:12.359Z,97608.53
2023-01-17T13:58:51.870Z,97596.47
2023-01-17T14:01:24.749Z,97600.44
2023-01-17T14:03:54.207Z,97600.22
2023-01-17T14:06:54.627Z,97594.56
2023-01-17T14:09:25.284Z,97582.69
2023-01-17T14:11:52.149Z,97581.16
2023-01-17T14:14:40.043Z,97573.22
2023-01-17T14:17:29.222Z,97569.56
2023-01-17T14:20:06.101Z,97564.84
2023-01-17T14:22:58.747Z,97564.69
2023-01-17T14:25:33.604Z,97551.78
2023-01-17T14:28:18.339Z,97545.63
2023-01-17T14:30:45.289Z,97540.09
2023-01-17T14:33:20.420Z,97531.72
2023-01-17T14:36:00.911Z,97520.31
2023-01-17T14:38:33.053Z,97515.09
2023-01-17T14:41:09.318Z,97507.25
2023-01-17T14:43:41.004Z,97495.63
2023-01-17T14:46:22.795Z,97486.59
2023-01-17T14:48:50.225Z,97491.53
2023-01-17T14:51:25.052Z,97492.47
2023-01-17T14:54:03.232Z,97494.94
2023-01-17T14:56:31.410Z,97488.63
2023-01-17T14:59:17.246Z,97484.41
2023-01-17T15:02:06.291Z,97484.97
2023-01-17T15:04:39.359Z,97473.09
2023-01-17T15:07:07.067Z,97478.00
2023-01-17T15:09:37.591Z,97466.69
2023-01-17T15:12:08.463Z,97470.59
2023-01-17T15:14:39.129Z,97459.34
2023-01-17T15:17:20.921Z,97453.56
2023-01-17T15:20:01.782Z,97461.38
2023-01-17T15:22:30.400Z,97458.25
2023-01-17T15:24:58.602Z,97461.50
2023-01-17T15:27:25.745Z,97459.91
2023-01-17T15:29:54.061Z,97452.44
2023-01-17T15:32:24.092Z,97456.13
2023-01-17T15:34:52.727Z,97449.09
2023-01-17T15:37:28.912Z,97446.06
2023-01-17T15:40:25.414Z,97436.69
2023-01-17T15:43:01.787Z,97450.09
2023-01-17T15:45:33.282Z,97440.50
2023-01-17T15:48:44.073Z,97437.56
2023-01-17T15:51:56.679Z,97447.22
2023-01-17T15:54:34.230Z,97453.38
2023-01-17T15:57:18.120Z,97462.19
2023-01-17T15:59:54.824Z,97476.16
2023-01-17T16:02:33.233Z,97472.97
2023-01-17T16:05:01.928Z,97478.09
2023-01-17T16:07:48.394Z,97483.13
2023-01-17T16:10:18.705Z,97486.44
2023-01-17T16:12:50.093Z,97479.84
2023-01-17T16:15:18.525Z,97491.72
2023-01-17T16:17:48.669Z,97492.59
2023-01-17T16:25:44.450Z,97499.31
2023-01-17T16:28:11.224Z,97497.75
2023-01-17T16:30:38.780Z,97502.22
2023-01-17T16:33:05.743Z,97494.44
2023-01-17T16:35:34.423Z,97492.75
2023-01-17T16:38:06.901Z,97499.69
2023-01-17T16:40:46.046Z,97504.72
2023-01-17T16:43:14.549Z,97499.34
2023-01-17T16:45:55.598Z,97505.56
2023-01-17T16:48:22.807Z,97503.34
2023-01-17T16:50:52.369Z,97512.66
2023-01-17T16:53:24.933Z,97512.94
2023-01-17T16:55:54.949Z,97518.81
2023-01-17T16:58:21.645Z,97518.81
2023-01-17T17:00:48.573Z,97502.28
2023-01-17T17:03:17.879Z,97507.44
2023-01-17T17:05:47.196Z,97512.91
2023-01-17T17:08:15.492Z,97514.34
2023-01-17T17:10:42.292Z,97508.56
2023-01-17T17:13:09.044Z,97506.19
2023-01-17T17:15:40.279Z,97500.34
2023-01-17T17:18:07.030Z,97492.16
2023-01-17T17:20:33.768Z,97505.47
2023-01-17T17:23:00.823Z,97501.44
2023-01-17T17:25:27.758Z,97495.34
2023-01-17T17:27:54.755Z,97497.22
2023-01-17T17:30:21.544Z,97492.72
2023-01-17T17:32:49.410Z,97499.06
2023-01-17T17:35:16.436Z,97495.53
2023-01-17T17:37:43.174Z,97490.88
2023-01-17T17:40:10.569Z,97484.66
2023-01-17T17:42:37.329Z,97486.25
2023-01-17T17:45:04.858Z,97484.97
2023-01-17T17:47:31.692Z,97487.22
2023-01-17T17:49:58.467Z,97491.19
2023-01-17T17:52:28.688Z,97485.44
2023-01-17T17:54:55.409Z,97487.22
2023-01-17T17:57:22.184Z,97488.56
2023-01-17T17:59:48.967Z,97489.94
2023-01-17T18:02:16.446Z,97480.25
2023-01-17T18:04:43.220Z,97476.69
2023-01-17T18:07:09.937Z,97459.31
2023-01-17T18:09:36.711Z,97450.81
2023-01-17T18:12:03.667Z,97445.50
2023-01-17T18:14:30.600Z,97441.56
2023-01-17T18:16:57.397Z,97440.34
2023-01-17T18:19:25.865Z,97451.38
2023-01-17T18:21:53.351Z,97444.34
2023-01-17T18:24:22.741Z,97453.03
2023-01-17T18:26:52.654Z,97434.13
2023-01-17T18:29:21.407Z,97424.66
2023-01-17T18:31:55.152Z,97422.88
2023-01-17T18:34:27.082Z,97416.84
2023-01-17T18:36:54.268Z,97412.06
2023-01-17T18:39:24.513Z,97399.41
2023-01-17T18:41:51.625Z,97396.19
2023-01-17T18:44:22.019Z,97396.09
2023-01-17T18:46:50.386Z,97380.00
2023-01-17T18:49:19.503Z,97386.75
2023-01-17T18:51:50.448Z,97381.06
2023-01-17T18:54:18.914Z,97387.19
2023-01-17T18:56:45.746Z,97378.50
2023-01-17T18:59:14.504Z,97372.59
2023-01-17T19:01:44.893Z,97371.81
2023-01-17T19:04:13.730Z,97362.06
2023-01-17T19:06:43.466Z,97346.44
2023-01-17T19:09:12.610Z,97348.44
2023-01-17T19:11:39.636Z,97351.09
2023-01-17T19:14:09.901Z,97336.19
2023-01-17T19:16:39.368Z,97340.19
2023-01-17T19:19:09.785Z,97332.50
2023-01-17T19:21:37.194Z,97341.75
2023-01-17T19:24:04.839Z,97334.41
2023-01-17T19:26:31.860Z,97336.88
2023-01-17T19:29:00.060Z,97337.16
2023-01-17T19:31:29.585Z,97343.38
2023-01-17T19:34:00.347Z,97341.38
2023-01-17T19:36:29.553Z,97346.50
2023-01-17T19:39:04.375Z,97332.69
2023-01-17T19:41:33.630Z,97324.41
2023-01-17T19:44:03.545Z,97311.22
2023-01-17T19:46:30.695Z,97307.66
2023-01-17T19:48:58.044Z,97298.53
2023-01-17T19:51:26.732Z,97291.19
2023-01-17T19:53:55.384Z,97296.88
2023-01-17T19:56:25.274Z,97287.56
2023-01-17T19:58:52.629Z,97288.88
2023-01-17T20:01:24.170Z,97281.25
2023-01-17T20:03:51.452Z,97298.22
2023-01-17T20:06:24.006Z,97289.91
2023-01-17T20:08:51.158Z,97300.66
2023-01-17T20:11:20.526Z,97295.31
2023-01-17T20:13:48.555Z,97300.44
2023-01-17T20:16:17.184Z,97294.75
2023-01-17T20:18:44.175Z,97295.75
2023-01-17T20:21:14.429Z,97287.53
2023-01-17T20:23:43.098Z,97282.25
2023-01-17T20:26:13.810Z,97291.72
2023-01-17T20:28:42.027Z,97275.56
2023-01-17T20:31:14.983Z,97281.81
2023-01-17T20:33:43.181Z,97277.13
2023-01-17T20:36:12.697Z,97278.13
2023-01-17T20:38:46.013Z,97278.34
2023-01-17T20:41:19.993Z,97272.84
2023-01-17T20:43:47.968Z,97275.47
2023-01-17T20:46:15.691Z,97271.66
2023-01-17T20:48:47.884Z,97264.75
2023-01-17T20:51:15.302Z,97265.44
2023-01-17T20:53:43.536Z,97264.91
2023-01-17T20:56:15.005Z,97255.44
2023-01-17T20:58:42.613Z,97257.75
2023-01-17T21:01:11.913Z,97254.75
2023-01-17T21:03:39.748Z,97244.50
2023-01-17T21:06:09.219Z,97245.41
2023-01-17T21:08:38.607Z,97233.56
2023-01-17T21:11:07.181Z,97234.69
2023-01-17T21:13:36.355Z,97232.69
2023-01-17T21:16:03.821Z,97213.84
2023-01-17T21:18:33.791Z,97210.38
2023-01-17T21:21:09.340Z,97219.09
2023-01-17T21:23:38.054Z,97215.94
2023-01-17T21:26:09.456Z,97205.53
2023-01-17T21:28:38.787Z,97201.69
2023-01-17T21:31:23.007Z,97199.81
2023-01-17T21:33:58.157Z,97199.59
2023-01-17T21:36:31.032Z,97205.19
2023-01-17T21:38:59.764Z,97206.75
2023-01-17T21:41:28.781Z,97206.22
2023-01-17T21:44:01.241Z,97207.78
2023-01-17T21:46:29.196Z,97180.16
2023-01-17T21:48:58.696Z,97195.47
2023-01-17T21:51:45.728Z,97201.16
2023-01-17T21:54:18.995Z,97200.13
2023-01-17T21:57:04.240Z,97198.84
2023-01-17T21:59:33.930Z,97197.56
2023-01-17T22:02:22.489Z,97185.59
2023-01-17T22:05:24.662Z,97198.00
2023-01-17T22:08:12.033Z,97200.47
2023-01-17T22:10:45.983Z,97192.28
2023-01-17T22:13:13.340Z,97193.66
2023-01-17T22:15:40.127Z,97174.16
2023-01-17T22:18:11.248Z,97164.09
2023-01-17T22:20:41.957Z,97153.84
2023-01-17T22:23:10.110Z,97154.72
2023-01-17T22:25:37.395Z,97156.41
2023-01-17T22:28:04.868Z,97163.28
2023-01-17T22:30:31.686Z,97169.56
2023-01-17T22:33:00.073Z,97169.66
2023-01-17T22:35:26.979Z,97164.97
2023-01-17T22:37:54.572Z,97159.63
2023-01-17T22:40:32.091Z,97152.88
2023-01-17T22:42:59.243Z,97148.44
2023-01-17T22:45:27.380Z,97146.00
2023-01-17T22:47:54.148Z,97149.44
2023-01-17T22:50:23.030Z,97150.59
2023-01-17T22:52:49.814Z,97145.56
2023-01-17T22:55:16.579Z,97141.97
2023-01-17T22:57:46.595Z,97126.53
2023-01-17T23:00:14.728Z,97123.09
2023-01-17T23:02:58.466Z,97128.09
2023-01-17T23:05:25.440Z,97121.97
2023-01-17T23:07:52.217Z,97121.13
2023-01-17T23:10:39.031Z,97124.09
2023-01-17T23:13:10.359Z,97105.38
2023-01-17T23:15:58.830Z,97113.84
2023-01-17T23:18:44.413Z,97113.44
2023-01-17T23:21:13.962Z,97111.44
2023-01-17T23:23:40.662Z,97119.31
2023-01-17T23:26:07.375Z,97116.75
2023-01-17T23:28:34.118Z,97118.78
2023-01-17T23:31:05.016Z,97109.09
2023-01-17T23:33:32.134Z,97104.03
2023-01-17T23:36:01.624Z,97116.13
2023-01-17T23:38:33.795Z,97115.25
2023-01-17T23:41:25.143Z,97123.97
2023-01-17T23:43:53.999Z,97116.13
2023-01-17T23:46:27.874Z,97124.81
2023-01-17T23:48:55.290Z,97124.38
2023-01-17T23:51:22.094Z,97121.13
2023-01-17T23:53:48.810Z,97116.47
2023-01-17T23:56:23.163Z,97118.84
2023-01-17T23:58:50.370Z,97109.44
